• Join FlightAware (Why Join?)
  • Login
  • US Flag 
02:46PM EDT


 

Airport Tracker/Info


-or-


 

Live Flight TrackerFlight Track Log ✈ UAE380 ✈ 06-May-2012 ✈ OMDB / DXB - VHHH / HKG

Flight Track Log - Related Links

Times and Time Zones

All times are in EDT time to prevent confusion due to time zone crossing. See the UAE380 flight status page for this flight to view local times or setup timezone preferences in your user account.

Time Position Orientation Groundspeed Altitude Reporting Facility
EDT Latitude Longitude Course Direction KTS MPH feet Rate Location/Type
02:31AM 25.7758 58.9667 82° East  Level Estimated
02:32AM 25.7937 59.1031 82° East  Level Estimated
02:33AM 25.8115 59.2395 82° East  Level Estimated
02:34AM 25.8291 59.3760 82° East  Level Estimated
02:35AM 25.8466 59.5125 82° East  Level Estimated
02:36AM 25.8640 59.6490 82° East  Level Estimated
02:37AM 25.8813 59.7855 82° East  Level Estimated
02:38AM 25.8984 59.9222 82° East  Level Estimated
02:39AM 25.9154 60.0588 82° East  Level Estimated
02:40AM 25.9323 60.1955 82° East  Level Estimated
02:41AM 25.9490 60.3322 82° East  Level Estimated
02:42AM 25.9656 60.4690 82° East  Level Estimated
02:43AM 25.9821 60.6058 82° East  Level Estimated
02:44AM 25.9985 60.7426 82° East  Level Estimated
02:45AM 26.0147 60.8795 83° East  Level Estimated
02:46AM 26.0308 61.0164 83° East  Level Estimated
02:47AM 26.0468 61.1534 83° East  Level Estimated
02:48AM 26.0626 61.2904 83° East  Level Estimated
02:49AM 26.0783 61.4274 83° East  Level Estimated
02:50AM 26.0939 61.5645 83° East  Level Estimated
02:51AM 26.1094 61.7016 83° East  Level Estimated
02:52AM 26.1247 61.8387 83° East  Level Estimated
02:53AM 26.1399 61.9759 83° East  Level Estimated
02:54AM 26.1550 62.1131 83° East  Level Estimated
02:55AM 26.1699 62.2504 83° East  Level Estimated
02:56AM 26.1847 62.3876 83° East  Level Estimated
02:57AM 26.1994 62.5250 83° East  Level Estimated
02:58AM 26.2140 62.6623 83° East  Level Estimated
02:59AM 26.2284 62.7997 83° East  Level Estimated
03:00AM 26.2427 62.9371 83° East  Level Estimated
03:01AM 26.2568 63.0746 83° East  Level Estimated
03:02AM 26.2708 63.2121 84° East  Level Estimated
03:03AM 26.2847 63.3496 84° East  Level Estimated
03:04AM 26.2985 63.4871 84° East  Level Estimated
03:05AM 26.3121 63.6247 84° East  Level Estimated
03:06AM 26.3256 63.7623 84° East  Level Estimated
03:07AM 26.3390 63.9000 84° East  Level Estimated
03:08AM 26.3522 64.0376 84° East  Level Estimated
03:09AM 26.3653 64.1753 84° East  Level Estimated
03:10AM 26.3783 64.3131 84° East  Level Estimated
03:11AM 26.3911 64.4509 84° East  Level Estimated
03:12AM 26.4038 64.5887 84° East  Level Estimated
03:13AM 26.4164 64.7265 84° East  Level Estimated
03:14AM 26.4289 64.8643 84° East  Level Estimated
03:15AM 26.4412 65.0022 84° East  Level Estimated
03:16AM 26.4534 65.1402 84° East  Level Estimated
03:17AM 26.4654 65.2781 84° East  Level Estimated
03:18AM 26.4773 65.4161 85° East  Level Estimated
03:19AM 26.4891 65.5541 85° East  Level Estimated
03:20AM 26.5007 65.6921 85° East  Level Estimated
03:21AM 26.5123 65.8302 85° East  Level Estimated
03:22AM 26.5236 65.9683 85° East  Level Estimated
03:23AM 26.5349 66.1064 85° East  Level Estimated
03:24AM 26.5460 66.2446 85° East  Level Estimated
03:25AM 26.5570 66.3827 85° East  Level Estimated
03:26AM 26.5679 66.5209 85° East  Level Estimated
03:27AM 26.5786 66.6591 85° East  Level Estimated
03:28AM 26.5891 66.7974 85° East  Level Estimated
03:29AM 26.5996 66.9357 85° East  Level Estimated
03:30AM 26.6099 67.0740 85° East  Level Estimated
03:31AM 26.6201 67.2123 85° East  Level Estimated
03:32AM 26.6301 67.3506 85° East  Level Estimated
03:33AM 26.6401 67.4890 85° East  Level Estimated
03:34AM 26.6499 67.6274 86° East  Level Estimated
03:35AM 26.6595 67.7658 86° East  Level Estimated
03:36AM 26.6690 67.9043 86° East  Level Estimated
03:37AM 26.6784 68.0427 86° East  Level Estimated
03:38AM 26.6876 68.1812 86° East  Level Estimated
03:39AM 26.6968 68.3197 86° East  Level Estimated
03:40AM 26.7057 68.4583 86° East  Level Estimated
03:41AM 26.7146 68.5968 86° East  Level Estimated
03:42AM 26.7233 68.7354 86° East  Level Estimated
03:43AM 26.7318 68.8740 86° East  Level Estimated
03:44AM 26.7403 69.0126 86° East  Level Estimated
03:45AM 26.7486 69.1513 86° East  Level Estimated
03:46AM 26.7568 69.2899 86° East  Level Estimated
03:47AM 26.7648 69.4286 86° East  Level Estimated
03:48AM 26.7727 69.5673 86° East  Level Estimated
03:49AM 26.7805 69.7060 86° East  Level Estimated
03:50AM 26.7881 69.8448 87° East  Level Estimated
03:51AM 26.7956 69.9835 87° East  Level Estimated
03:52AM 26.8029 70.1223 87° East  Level Estimated
03:53AM 26.8102 70.2611 87° East  Level Estimated
03:54AM 26.8172 70.3999 87° East  Level Estimated
03:55AM 26.8242 70.5387 87° East  Level Estimated
03:56AM 26.8310 70.6776 87° East  Level Estimated
03:57AM 26.8377 70.8165 87° East  Level Estimated
03:58AM 26.8442 70.9553 87° East  Level Estimated
03:59AM 26.8507 71.0942 87° East  Level Estimated
04:00AM 26.8569 71.2331 87° East  Level Estimated
04:01AM 26.8631 71.3720 87° East  Level Estimated
04:02AM 26.8691 71.5110 87° East  Level Estimated
04:03AM 26.8749 71.6499 87° East  Level Estimated
04:04AM 26.8807 71.7889 87° East  Level Estimated
04:05AM 26.8862 71.9279 87° East  Level Estimated
04:06AM 26.8917 72.0669 88° East  Level Estimated
04:07AM 26.8970 72.2059 88° East  Level Estimated
04:08AM 26.9022 72.3449 88° East  Level Estimated
04:09AM 26.9073 72.4839 88° East  Level Estimated
04:10AM 26.9122 72.6230 88° East  Level Estimated
04:11AM 26.9170 72.7620 88° East  Level Estimated
04:12AM 26.9216 72.9011 88° East  Level Estimated
04:13AM 26.9261 73.0402 88° East  Level Estimated
04:14AM 26.9305 73.1793 88° East  Level Estimated
04:15AM 26.9347 73.3184 88° East  Level Estimated
04:16AM 26.9388 73.4575 88° East  Level Estimated
04:17AM 26.9428 73.5966 88° East  Level Estimated
04:18AM 26.9466 73.7357 88° East  Level Estimated
04:19AM 26.9503 73.8749 88° East  Level Estimated
04:20AM 26.9538 74.0140 88° East  Level Estimated
04:21AM 26.9572 74.1532 88° East  Level Estimated
04:22AM 26.9605 74.2924 89° East  Level Estimated
04:23AM 26.9637 74.4315 89° East  Level Estimated
04:24AM 26.9667 74.5707 89° East  Level Estimated
04:25AM 26.9695 74.7099 89° East  Level Estimated
04:26AM 26.9723 74.8491 89° East  Level Estimated
04:27AM 26.9748 74.9883 89° East  Level Estimated
04:28AM 26.9773 75.1275 89° East  Level Estimated
04:29AM 26.9796 75.2667 89° East  Level Estimated
04:30AM 26.9818 75.4059 89° East  Level Estimated
04:31AM 26.9839 75.5452 89° East  Level Estimated
04:32AM 26.9858 75.6844 89° East  Level Estimated
04:33AM 26.9875 75.8236 89° East  Level Estimated
04:34AM 26.9892 75.9629 89° East  Level Estimated
04:35AM 26.9907 76.1021 89° East  Level Estimated
04:36AM 26.9920 76.2413 89° East  Level Estimated
04:37AM 26.9933 76.3806 89° East  Level Estimated
04:38AM 26.9944 76.5199 90° East  Level Estimated
04:39AM 26.9953 76.6591 90° East  Level Estimated
04:40AM 26.9961 76.7984 90° East  Level Estimated
04:41AM 26.9968 76.9376 90° East  Level Estimated
04:42AM 26.9974 77.0769 90° East  Level Estimated
04:43AM 26.9978 77.2161 90° East  Level Estimated
04:44AM 26.9980 77.3554 90° East  Level Estimated
04:45AM 26.9982 77.4947 90° East  Level Estimated
04:46AM 26.9981 77.6339 90° East  Level Estimated
04:47AM 26.9980 77.7732 90° East  Level Estimated
04:48AM 26.9977 77.9125 90° East  Level Estimated
04:49AM 26.9973 78.0517 90° East  Level Estimated
04:50AM 26.9968 78.1910 90° East  Level Estimated
04:51AM 26.9961 78.3302 90° East  Level Estimated
04:52AM 26.9952 78.4695 90° East  Level Estimated
04:53AM 26.9943 78.6087 90° East  Level Estimated
04:54AM 26.9932 78.7480 91° East  Level Estimated
04:55AM 26.9919 78.8873 91° East  Level Estimated
04:56AM 26.9906 79.0265 91° East  Level Estimated
04:57AM 26.9890 79.1657 91° East  Level Estimated
04:58AM 26.9874 79.3050 91° East  Level Estimated
04:59AM 26.9856 79.4442 91° East  Level Estimated
05:00AM 26.9837 79.5834 91° East  Level Estimated
05:01AM 26.9816 79.7227 91° East  Level Estimated
05:02AM 26.9794 79.8619 91° East  Level Estimated
05:03AM 26.9771 80.0011 91° East  Level Estimated
05:04AM 26.9746 80.1403 91° East  Level Estimated
05:05AM 26.9720 80.2795 91° East  Level Estimated
05:06AM 26.9693 80.4187 91° East  Level Estimated
05:07AM 26.9664 80.5579 91° East  Level Estimated
05:08AM 26.9634 80.6971 91° East  Level Estimated
05:09AM 26.9602 80.8363 91° East  Level Estimated
05:10AM 26.9569 80.9754 92° East  Level Estimated
05:11AM 26.9535 81.1146 92° East  Level Estimated
05:12AM 26.9499 81.2537 92° East  Level Estimated
05:13AM 26.9463 81.3929 92° East  Level Estimated
05:14AM 26.9424 81.5320 92° East  Level Estimated
05:15AM 26.9384 81.6711 92° East  Level Estimated
05:16AM 26.9343 81.8102 92° East  Level Estimated
05:17AM 26.9301 81.9493 92° East  Level Estimated
05:18AM 26.9257 82.0884 92° East  Level Estimated
05:19AM 26.9212 82.2275 92° East  Level Estimated
05:20AM 26.9165 82.3666 92° East  Level Estimated
05:21AM 26.9118 82.5056 92° East  Level Estimated
05:22AM 26.9068 82.6447 92° East  Level Estimated
05:23AM 26.9018 82.7837 92° East  Level Estimated
05:24AM 26.8966 82.9227 92° East  Level Estimated
05:25AM 26.8912 83.0617 92° East  Level Estimated
05:26AM 26.8858 83.2007 93° East  Level Estimated
05:27AM 26.8801 83.3397 93° East  Level Estimated
05:28AM 26.8744 83.4787 93° East  Level Estimated
05:29AM 26.8685 83.6176 93° East  Level Estimated
05:30AM 26.8625 83.7565 93° East  Level Estimated
05:31AM 26.8564 83.8955 93° East  Level Estimated
05:32AM 26.8501 84.0344 93° East  Level Estimated
05:33AM 26.8437 84.1733 93° East  Level Estimated
05:34AM 26.8371 84.3121 93° East  Level Estimated
05:35AM 26.8304 84.4510 93° East  Level Estimated
05:36AM 26.8236 84.5898 93° East  Level Estimated
05:37AM 26.8166 84.7287 93° East  Level Estimated
05:38AM 26.8095 84.8675 93° East  Level Estimated
05:39AM 26.8023 85.0063 93° East  Level Estimated
05:40AM 26.7949 85.1450 93° East  Level Estimated
05:41AM 26.7874 85.2838 93° East  Level Estimated
05:42AM 26.7798 85.4225 94° East  Level Estimated
05:43AM 26.7720 85.5612 94° East  Level Estimated
05:44AM 26.7641 85.7000 94° East  Level Estimated
05:45AM 26.7560 85.8386 94° East  Level Estimated
05:46AM 26.7479 85.9773 94° East  Level Estimated
05:47AM 26.7395 86.1159 94° East  Level Estimated
05:48AM 26.7311 86.2545 94° East  Level Estimated
05:49AM 26.7225 86.3931 94° East  Level Estimated
05:50AM 26.7138 86.5317 94° East  Level Estimated
05:51AM 26.7050 86.6703 94° East  Level Estimated
05:52AM 26.6960 86.8088 94° East  Level Estimated
05:53AM 26.6868 86.9473 94° East  Level Estimated
05:54AM 26.6776 87.0858 94° East  Level Estimated
05:55AM 26.6682 87.2243 94° East  Level Estimated
05:56AM 26.6587 87.3627 94° East  Level Estimated
05:57AM 26.6490 87.5011 94° East  Level Estimated
05:58AM 26.6392 87.6395 95° East  Level Estimated
05:59AM 26.6293 87.7779 95° East  Level Estimated
06:00AM 26.6192 87.9163 95° East  Level Estimated
06:01AM 26.6090 88.0546 95° East  Level Estimated
06:02AM 26.5987 88.1929 95° East  Level Estimated
06:03AM 26.5882 88.3311 95° East  Level Estimated
06:04AM 26.5776 88.4694 95° East  Level Estimated
06:05AM 26.5669 88.6076 95° East  Level Estimated
06:06AM 26.5560 88.7458 95° East  Level Estimated
06:07AM 26.5450 88.8840 95° East  Level Estimated
06:08AM 26.5339 89.0221 95° East  Level Estimated
06:09AM 26.5227 89.1602 95° East  Level Estimated
06:10AM 26.5113 89.2983 95° East  Level Estimated
06:11AM 26.4997 89.4364 95° East  Level Estimated
06:12AM 26.4881 89.5744 95° East  Level Estimated
06:13AM 26.4763 89.7124 95° East  Level Estimated
06:14AM 26.4643 89.8504 96° East  Level Estimated
06:15AM 26.4523 89.9883 96° East  Level Estimated
06:16AM 26.4401 90.1263 96° East  Level Estimated
06:17AM 26.4278 90.2642 96° East  Level Estimated
06:18AM 26.4153 90.4020 96° East  Level Estimated
06:19AM 26.4027 90.5398 96° East  Level Estimated
06:20AM 26.3900 90.6776 96° East  Level Estimated
06:21AM 26.3772 90.8154 96° East  Level Estimated
06:22AM 26.3642 90.9531 96° East  Level Estimated
06:23AM 26.3511 91.0909 96° East  Level Estimated
06:24AM 26.3378 91.2285 96° East  Level Estimated
06:25AM 26.3244 91.3662 96° East  Level Estimated
06:26AM 26.3109 91.5038 96° East  Level Estimated
06:27AM 26.2973 91.6414 96° East  Level Estimated
06:28AM 26.2835 91.7789 96° East  Level Estimated
06:29AM 26.2696 91.9164 96° East  Level Estimated
06:30AM 26.2556 92.0539 97° East  Level Estimated
06:31AM 26.2414 92.1914 97° East  Level Estimated
06:32AM 26.2271 92.3288 97° East  Level Estimated
06:33AM 26.2127 92.4662 97° East  Level Estimated
06:34AM 26.1981 92.6035 97° East  Level Estimated
06:35AM 26.1834 92.7408 97° East  Level Estimated
06:36AM 26.1686 92.8781 97° East  Level Estimated
06:37AM 26.1537 93.0153 97° East  Level Estimated
06:38AM 26.1386 93.1525 97° East  Level Estimated
06:39AM 26.1234 93.2897 97° East  Level Estimated
06:40AM 26.1080 93.4268 97° East  Level Estimated
06:41AM 26.0926 93.5639 97° East  Level Estimated
06:42AM 26.0770 93.7010 97° East  Level Estimated
06:43AM 26.0612 93.8380 97° East  Level Estimated
06:44AM 26.0454 93.9750 97° East  Level Estimated
06:45AM 26.0294 94.1120 97° East  Level Estimated
06:46AM 26.0133 94.2489 97° East  Level Estimated
06:47AM 25.9970 94.3858 98° East  Level Estimated
06:48AM 25.9807 94.5226 98° East  Level Estimated
06:49AM 25.9642 94.6594 98° East  Level Estimated
06:50AM 25.9475 94.7962 98° East  Level Estimated
06:51AM 25.9308 94.9329 98° East  Level Estimated
06:52AM 25.9139 95.0696 98° East  Level Estimated
06:53AM 25.8969 95.2062 98° East  Level Estimated
06:54AM 25.8797 95.3428 98° East  Level Estimated
06:55AM 25.8625 95.4794 98° East  Level Estimated
06:56AM 25.8451 95.6159 98° East  Level Estimated
06:57AM 25.8276 95.7524 98° East  Level Estimated
06:58AM 25.8099 95.8889 98° East  Level Estimated
06:59AM 25.7921 96.0253 98° East  Level Estimated
07:00AM 25.7742 96.1616 98° East  Level Estimated
07:01AM 25.7562 96.2980 98° East  Level Estimated
07:02AM 25.7380 96.4342 98° East  Level Estimated
07:03AM 25.7197 96.5705 99° East  Level Estimated
07:04AM 25.7013 96.7067 99° East  Level Estimated
07:05AM 25.6828 96.8428 99° East  Level Estimated
07:06AM 25.6641 96.9789 99° East  Level Estimated
07:07AM 25.6453 97.1150 99° East  Level Estimated
07:08AM 25.6264 97.2510 99° East  Level Estimated
07:09AM 25.6074 97.3870 99° East  Level Estimated
07:10AM 25.5882 97.5230 99° East  Level Estimated
07:11AM 25.5689 97.6589 99° East  Level Estimated
07:12AM 25.5495 97.7947 99° East  Level Estimated
07:13AM 25.5299 97.9305 99° East  Level Estimated
07:14AM 25.5103 98.0663 99° East  Level Estimated
07:15AM 25.4904 98.2020 99° East  Level Estimated
07:16AM 25.4705 98.3377 99° East  Level Estimated
07:17AM 25.4505 98.4733 99° East  Level Estimated
07:18AM 25.4303 98.6089 99° East  Level Estimated
07:19AM 25.4100 98.7444 99° East  Level Estimated
07:20AM 25.3896 98.8799 99° East  Level Estimated
07:21AM 25.3690 99.0153 100° East  Level Estimated
07:22AM 25.3484 99.1507 100° East  Level Estimated
07:23AM 25.3276 99.2861 100° East  Level Estimated
07:24AM 25.3067 99.4214 100° East  Level Estimated
07:25AM 25.2856 99.5567 100° East  Level Estimated
07:26AM 25.2645 99.6919 100° East  Level Estimated
07:27AM 25.2432 99.8270 100° East  Level Estimated
07:28AM 25.2218 99.9622 100° East  Level Estimated
07:29AM 25.2003 100.0972 100° East  Level Estimated
07:30AM 25.1786 100.2323 100° East  Level Estimated
07:31AM 25.1568 100.3672 100° East  Level Estimated
07:32AM 25.1349 100.5022 100° East  Level Estimated
07:33AM 25.1129 100.6370 100° East  Level Estimated
07:34AM 25.0908 100.7719 100° East  Level Estimated
07:35AM 25.0685 100.9066 100° East  Level Estimated
07:36AM 25.0461 101.0414 100° East  Level Estimated
07:37AM 25.0236 101.1761 100° East  Level Estimated
07:38AM 25.0010 101.3107 101° East  Level Estimated
07:39AM 24.9782 101.4453 101° East  Level Estimated
07:40AM 24.9554 101.5798 101° East  Level Estimated
07:41AM 24.9324 101.7143 101° East  Level Estimated
07:42AM 24.9093 101.8487 101° East  Level Estimated
07:43AM 24.8860 101.9831 101° East  Level Estimated
07:44AM 24.8627 102.1174 101° East  Level Estimated
07:45AM 24.8392 102.2517 101° East  Level Estimated
07:46AM 24.8156 102.3859 101° East  Level Estimated
07:47AM 24.7919 102.5201 101° East  Level Estimated
07:48AM 24.7681 102.6543 101° East  Level Estimated
07:49AM 24.7441 102.7883 101° East  Level Estimated
07:50AM 24.7201 102.9223 101° East  Level Estimated
07:51AM 24.6959 103.0563 101° East  Level Estimated
07:52AM 24.6716 103.1902 101° East  Level Estimated
07:53AM 24.6471 103.3241 101° East  Level Estimated
07:54AM 24.6226 103.4579 101° East  Level Estimated
07:55AM 24.5979 103.5917 101° East  Level Estimated
07:56AM 24.5731 103.7254 102° East  Level Estimated
07:57AM 24.5482 103.8591 102° East  Level Estimated
07:58AM 24.5232 103.9927 102° East  Level Estimated
07:59AM 24.4981 104.1262 102° East  Level Estimated
08:00AM 24.4728 104.2597 102° East  Level Estimated
08:01AM 24.4475 104.3932 102° East  Level Estimated
08:02AM 24.4220 104.5265 102° East  Level Estimated
08:03AM 24.3964 104.6599 102° East  Level Estimated
08:04AM 24.3706 104.7932 102° East  Level Estimated
08:05AM 24.3448 104.9264 102° East  Level Estimated
08:06AM 24.3189 105.0596 102° East  Level Estimated
08:07AM 24.2928 105.1927 102° East  Level Estimated
08:08AM 24.2666 105.3257 102° East  Level Estimated
08:09AM 24.2403 105.4587 102° East  Level Estimated
08:10AM 24.2139 105.5917 102° East  Level Estimated
08:11AM 24.1873 105.7246 102° East  Level Estimated
08:12AM 24.1607 105.8574 102° East  Level Estimated
08:13AM 24.1339 105.9902 102° East  Level Estimated
08:14AM 24.1071 106.1229 103° East  Level Estimated
08:15AM 24.0801 106.2556 103° East  Level Estimated
08:16AM 24.0530 106.3882 103° East  Level Estimated
08:17AM 24.0257 106.5208 103° East  Level Estimated
08:18AM 23.9984 106.6533 103° East  Level Estimated
08:19AM 23.9710 106.7858 103° East  Level Estimated
08:20AM 23.9434 106.9181 103° East  Level Estimated
08:21AM 23.9157 107.0505 103° East  Level Estimated
08:22AM 23.8879 107.1827 103° East  Level Estimated
08:23AM 23.8600 107.3150 103° East  Level Estimated
08:24AM 23.8320 107.4471 103° East  Level Estimated
08:25AM 23.8039 107.5792 103° East  Level Estimated
08:26AM 23.7757 107.7113 103° East  Level Estimated
08:27AM 23.7473 107.8433 103° East  Level Estimated
08:28AM 23.7188 107.9752 103° East  Level Estimated
08:29AM 23.6903 108.1071 103° East  Level Estimated
08:30AM 23.6616 108.2389 103° East  Level Estimated
08:31AM 23.6328 108.3707 103° East  Level Estimated
08:32AM 23.6039 108.5024 103° East  Level Estimated
08:33AM 23.5748 108.6340 104° East  Level Estimated
08:34AM 23.5457 108.7656 104° East  Level Estimated
08:35AM 23.5165 108.8972 104° East  Level Estimated
08:36AM 23.4871 109.0286 104° East  Level Estimated
08:37AM 23.4577 109.1600 104° East  Level Estimated
08:38AM 23.4281 109.2914 104° East  Level Estimated
08:39AM 23.3984 109.4227 104° East  Level Estimated
08:40AM 23.3686 109.5539 104° East  Level Estimated
08:41AM 23.3387 109.6851 104° East  Level Estimated
08:42AM 23.3087 109.8162 104° East  Level Estimated
08:43AM 23.2786 109.9473 104° East  Level Estimated
08:44AM 23.2484 110.0783 104° East  Level Estimated
08:45AM 23.2180 110.2092 104° East  Level Estimated
08:46AM 23.1876 110.3401 104° East  Level Estimated
08:47AM 23.1570 110.4709 104° East  Level Estimated
08:48AM 23.1264 110.6017 104° East  Level Estimated
08:49AM 23.0956 110.7324 104° East  Level Estimated
08:50AM 23.0647 110.8630 104° East  Level Estimated
08:51AM 23.0337 110.9936 104° East  Level Estimated
08:52AM 23.0026 111.1241 105° East  Level Estimated
08:53AM 22.9714 111.2546 105° East  Level Estimated
08:54AM 22.9401 111.3850 105° East  Level Estimated
08:55AM 22.9087 111.5153 105° East  Level Estimated
08:56AM 22.8772 111.6456 105° East  Level Estimated
08:57AM 22.8456 111.7758 105° East  Level Estimated
08:58AM 22.8139 111.9060 105° East  Level Estimated
08:59AM 22.7820 112.0361 105° East  Level Estimated
09:00AM 22.7501 112.1661 105° East  Level Estimated
09:01AM 22.7180 112.2961 105° East  Level Estimated
09:02AM 22.6859 112.4260 105° East  Level Estimated
09:03AM 22.6536 112.5559 105° East  Level Estimated
09:04AM 22.6213 112.6857 105° East  Level Estimated
09:05AM 22.5888 112.8154 105° East  Level Estimated
09:06AM 22.5562 112.9451 105° East  Level Estimated
09:07AM 22.5236 113.0747 105° East  Level Estimated
09:08AM 22.4908 113.2042 105° East  Level Estimated
09:09AM 22.4579 113.3337 105° East  Level Estimated
09:10AM 22.4249 113.4631 105° East  Level Estimated
09:11AM 22.3918 113.5925 105° East  Level Estimated
09:12AM 22.3586 113.7218 106° East  Level Estimated
09:13AM 22.3253 113.8510 106° East  Level Estimated
09:14AM 22.2920 113.9802 286° West  Level Estimated
09:15AM 22.3253 113.8510 106° East  Level Estimated
09:16AM 22.2911 113.9833 286° West  Level Estimated
09:17AM 22.3253 113.8510 106° East  Level Estimated
09:18AM 22.2911 113.9833 286° West  Level Estimated
09:19AM 22.3253 113.8510 286° West  Level Estimated